createdAt,value
2017-03-06T00:00:59.055Z,6.41
2017-03-06T00:02:14.981Z,6.49
2017-03-06T00:03:28.974Z,6.47
2017-03-06T00:04:44.167Z,6.47
2017-03-06T00:05:58.712Z,6.29
2017-03-06T00:07:13.930Z,6.31
2017-03-06T00:08:28.607Z,6.34
2017-03-06T00:09:43.190Z,6.39
2017-03-06T00:10:58.013Z,6.34
2017-03-06T00:12:13.409Z,6.31
2017-03-06T00:13:29.484Z,6.35
2017-03-06T00:14:45.020Z,6.32
2017-03-06T00:15:59.814Z,6.28
2017-03-06T00:17:14.946Z,6.29
2017-03-06T00:18:30.845Z,6.31
2017-03-06T00:19:44.792Z,6.28
2017-03-06T00:20:59.574Z,6.31
2017-03-06T00:22:14.282Z,6.26
2017-03-06T00:23:29.254Z,6.29
2017-03-06T00:24:45.531Z,6.28
2017-03-06T00:26:00.653Z,6.26
2017-03-06T00:27:16.796Z,6.17
2017-03-06T00:28:32.450Z,6.22
2017-03-06T00:29:49.056Z,6.17
2017-03-06T00:31:05.227Z,6.17
2017-03-06T00:32:21.014Z,6.15
2017-03-06T00:33:36.587Z,6.2
2017-03-06T00:34:52.542Z,6.09
2017-03-06T00:36:39.552Z,6.12
2017-03-06T00:37:56.118Z,6.15
2017-03-06T00:39:13.779Z,6.15
2017-03-06T00:40:29.624Z,6.09
2017-03-06T00:41:45.349Z,6.06
2017-03-06T00:43:01.486Z,6.01
2017-03-06T00:44:17.215Z,6.07
2017-03-06T00:45:33.386Z,6.09
2017-03-06T00:46:51.072Z,5.95
2017-03-06T00:48:06.671Z,6.09
2017-03-06T00:49:21.235Z,6.05
2017-03-06T00:50:37.717Z,6.05
2017-03-06T00:51:52.837Z,5.91
2017-03-06T00:53:06.998Z,5.92
2017-03-06T00:54:23.000Z,6.02
2017-03-06T00:55:39.327Z,6.09
2017-03-06T00:56:55.018Z,6.06
2017-03-06T00:58:11.612Z,5.95
2017-03-06T00:59:27.175Z,5.92
2017-03-06T01:00:42.325Z,5.97
2017-03-06T01:01:56.913Z,5.88
2017-03-06T01:03:12.252Z,5.9
2017-03-06T01:04:26.465Z,5.83
2017-03-06T01:05:41.854Z,5.95
2017-03-06T01:06:56.776Z,5.94
2017-03-06T01:08:12.039Z,5.95
2017-03-06T01:09:26.080Z,5.99
2017-03-06T01:10:42.438Z,5.94
2017-03-06T01:11:58.175Z,5.84
2017-03-06T01:13:12.299Z,5.88
2017-03-06T01:14:28.435Z,5.88
2017-03-06T01:15:44.216Z,5.88
2017-03-06T01:16:58.742Z,5.79
2017-03-06T01:18:13.792Z,5.9
2017-03-06T01:19:27.958Z,5.88
2017-03-06T01:20:43.050Z,5.87
2017-03-06T01:21:58.234Z,5.87
2017-03-06T01:23:13.004Z,5.73
2017-03-06T01:24:27.972Z,5.77
2017-03-06T01:25:43.362Z,5.79
2017-03-06T01:26:59.098Z,5.8
2017-03-06T01:28:14.554Z,5.76
2017-03-06T01:29:31.891Z,5.8
2017-03-06T01:30:47.751Z,5.74
2017-03-06T01:32:02.583Z,5.79
2017-03-06T01:33:18.841Z,5.73
2017-03-06T01:34:34.310Z,5.69
2017-03-06T01:35:48.308Z,5.62
2017-03-06T01:37:03.853Z,5.69
2017-03-06T01:38:17.837Z,5.69
2017-03-06T01:39:32.765Z,5.69
2017-03-06T01:40:47.424Z,5.59
2017-03-06T01:42:03.465Z,5.59
2017-03-06T01:43:17.480Z,5.64
2017-03-06T01:44:33.471Z,5.64
2017-03-06T01:45:49.948Z,5.58
2017-03-06T01:47:05.467Z,5.61
2017-03-06T01:48:20.104Z,5.59
2017-03-06T01:49:35.452Z,5.55
2017-03-06T01:50:49.395Z,5.55
2017-03-06T01:52:04.704Z,5.54
2017-03-06T01:53:19.010Z,5.52
2017-03-06T01:54:33.954Z,5.51
2017-03-06T01:55:49.753Z,5.54
2017-03-06T01:57:06.858Z,5.49
2017-03-06T01:58:21.744Z,5.52
2017-03-06T01:59:36.197Z,5.55
2017-03-06T02:00:50.777Z,5.59
2017-03-06T02:02:05.476Z,5.56
2017-03-06T02:03:19.684Z,5.61
2017-03-06T02:04:36.137Z,5.62
2017-03-06T02:05:50.098Z,5.67
2017-03-06T02:07:04.282Z,5.61
2017-03-06T02:08:19.451Z,5.58
2017-03-06T02:09:34.849Z,5.65
2017-03-06T02:10:49.318Z,5.67
2017-03-06T02:12:03.479Z,5.67
2017-03-06T02:13:18.177Z,5.69
2017-03-06T02:14:33.318Z,5.72
2017-03-06T02:15:47.712Z,5.54
2017-03-06T02:17:01.886Z,5.7
2017-03-06T02:18:15.870Z,5.62
2017-03-06T02:19:30.532Z,5.7
2017-03-06T02:20:44.919Z,5.72
2017-03-06T02:21:59.628Z,5.72
2017-03-06T02:23:14.936Z,5.73
2017-03-06T02:24:29.126Z,5.72
2017-03-06T02:25:43.340Z,5.77
2017-03-06T02:26:57.555Z,5.73
2017-03-06T02:28:11.519Z,5.72
2017-03-06T02:29:26.192Z,5.73
2017-03-06T02:30:40.228Z,5.83
2017-03-06T02:31:54.355Z,5.87
2017-03-06T02:33:08.864Z,5.87
2017-03-06T02:34:23.046Z,5.91
2017-03-06T02:35:37.412Z,5.92
2017-03-06T02:36:52.042Z,5.9
2017-03-06T02:38:06.149Z,5.84
2017-03-06T02:39:20.650Z,5.76
2017-03-06T02:40:35.449Z,5.69
2017-03-06T02:41:50.076Z,5.83
2017-03-06T02:43:04.499Z,5.8
2017-03-06T02:44:19.664Z,5.8
2017-03-06T02:45:35.373Z,5.83
2017-03-06T02:46:50.025Z,5.8
2017-03-06T02:48:04.246Z,5.83
2017-03-06T02:49:18.435Z,5.9
2017-03-06T02:50:32.340Z,5.84
2017-03-06T02:51:47.007Z,5.84
2017-03-06T02:53:01.384Z,5.74
2017-03-06T02:54:15.651Z,5.8
2017-03-06T02:55:31.080Z,5.79
2017-03-06T02:56:45.032Z,5.74
2017-03-06T02:57:59.306Z,5.81
2017-03-06T02:59:13.401Z,5.81
2017-03-06T03:00:28.019Z,5.74
2017-03-06T03:01:43.239Z,5.84
2017-03-06T03:02:57.164Z,5.95
2017-03-06T03:04:11.377Z,5.84
2017-03-06T03:05:25.278Z,5.94
2017-03-06T03:06:39.747Z,5.87
2017-03-06T03:07:55.044Z,5.94
2017-03-06T03:09:10.050Z,5.8
2017-03-06T03:10:24.506Z,5.9
2017-03-06T03:11:38.887Z,5.9
2017-03-06T03:12:53.368Z,5.88
2017-03-06T03:14:07.558Z,5.92
2017-03-06T03:15:22.207Z,6.01
2017-03-06T03:16:36.341Z,6.09
2017-03-06T03:17:50.453Z,6.02
2017-03-06T03:19:04.766Z,6.01
2017-03-06T03:20:18.840Z,6.02
2017-03-06T03:21:35.222Z,5.91
2017-03-06T03:22:49.132Z,6.02
2017-03-06T03:24:03.428Z,6.02
2017-03-06T03:25:17.390Z,5.94
2017-03-06T03:26:32.070Z,6.09
2017-03-06T03:27:46.458Z,6.02
2017-03-06T03:29:01.092Z,6.06
2017-03-06T03:30:15.498Z,6.01
2017-03-06T03:31:30.121Z,6.01
2017-03-06T03:32:44.095Z,6.09
2017-03-06T03:33:58.699Z,5.99
2017-03-06T03:35:13.112Z,6.01
2017-03-06T03:36:27.837Z,6.09
2017-03-06T03:37:42.200Z,6.1
2017-03-06T03:38:56.348Z,5.99
2017-03-06T03:40:10.327Z,6.25
2017-03-06T03:41:24.548Z,6.13
2017-03-06T03:42:38.916Z,6.12
2017-03-06T03:43:53.495Z,6.02
2017-03-06T03:45:08.359Z,6.07
2017-03-06T03:46:23.429Z,5.98
2017-03-06T03:47:37.350Z,6.07
2017-03-06T03:48:51.488Z,6.02
2017-03-06T03:50:05.856Z,6.05
2017-03-06T03:51:20.678Z,6.02
2017-03-06T03:52:35.478Z,6.01
2017-03-06T03:53:49.676Z,6.12
2017-03-06T03:55:03.597Z,6.01
2017-03-06T03:56:17.791Z,6.05
2017-03-06T03:57:31.775Z,6.05
2017-03-06T03:58:52.654Z,6.05
2017-03-06T04:02:37.076Z,6.07
2017-03-06T04:03:51.886Z,6.13
2017-03-06T04:05:06.492Z,6.22
2017-03-06T04:06:20.447Z,6.26
2017-03-06T04:07:35.362Z,6.26
2017-03-06T04:08:49.335Z,6.17
2017-03-06T04:10:04.074Z,6.25
2017-03-06T04:11:17.998Z,6.26
2017-03-06T04:12:32.739Z,6.26
2017-03-06T04:13:46.640Z,6.28
2017-03-06T04:15:01.117Z,6.29
2017-03-06T04:16:15.501Z,6.31
2017-03-06T04:18:14.361Z,6.25
2017-03-06T04:19:29.067Z,6.2
2017-03-06T04:20:43.451Z,6.31
2017-03-06T04:21:58.043Z,6.34
2017-03-06T04:23:12.917Z,6.29
2017-03-06T04:24:27.451Z,6.34
2017-03-06T04:25:41.407Z,6.29
2017-03-06T04:26:56.491Z,6.32
2017-03-06T04:28:10.461Z,6.35
2017-03-06T04:29:25.045Z,6.29
2017-03-06T04:30:39.452Z,6.39
2017-03-06T04:31:53.627Z,6.35
2017-03-06T04:33:07.638Z,6.35
2017-03-06T04:34:22.122Z,6.39
2017-03-06T04:35:36.050Z,6.43
2017-03-06T04:36:50.259Z,6.41
2017-03-06T04:38:04.205Z,6.31
2017-03-06T04:39:18.961Z,6.46
2017-03-06T04:40:35.368Z,6.29
2017-03-06T04:41:49.376Z,6.34
2017-03-06T04:43:03.981Z,6.34
2017-03-06T04:45:12.148Z,6.38
2017-03-06T04:46:26.239Z,6.44
2017-03-06T04:47:40.170Z,6.41
2017-03-06T04:48:54.802Z,6.43
2017-03-06T04:50:08.778Z,6.38
2017-03-06T04:51:23.370Z,6.39
2017-03-06T04:52:37.596Z,6.44
2017-03-06T04:53:52.211Z,6.38
2017-03-06T04:55:06.602Z,6.38
2017-03-06T04:56:21.698Z,6.39
2017-03-06T04:57:35.653Z,6.46
2017-03-06T04:58:50.830Z,6.43
2017-03-06T05:00:04.793Z,6.44
2017-03-06T05:01:19.120Z,6.46
2017-03-06T05:02:33.045Z,6.36
2017-03-06T05:03:47.641Z,6.43
2017-03-06T05:05:01.880Z,6.47
2017-03-06T05:06:16.121Z,6.46
2017-03-06T05:07:30.973Z,6.52
2017-03-06T05:08:45.551Z,6.49
2017-03-06T05:09:59.501Z,6.41
2017-03-06T05:11:13.964Z,6.46
2017-03-06T05:12:27.892Z,6.46
2017-03-06T05:13:42.056Z,6.41
2017-03-06T05:14:56.908Z,6.56
2017-03-06T05:16:11.644Z,6.47
2017-03-06T05:17:26.479Z,6.43
2017-03-06T05:18:40.666Z,6.52
2017-03-06T05:19:54.660Z,6.5
2017-03-06T05:21:09.231Z,6.46
2017-03-06T05:22:23.671Z,6.44
2017-03-06T05:23:38.257Z,6.47
2017-03-06T05:24:53.316Z,6.43
2017-03-06T05:26:08.624Z,6.43
2017-03-06T05:27:23.211Z,6.52
2017-03-06T05:28:37.487Z,6.49
2017-03-06T05:31:11.126Z,6.46
2017-03-06T05:32:47.256Z,7.31
2017-03-06T05:34:01.321Z,7.64
2017-03-06T05:35:15.691Z,7.75
2017-03-06T05:36:31.630Z,7.8
2017-03-06T05:37:46.235Z,7.48
2017-03-06T05:39:01.046Z,7.25
2017-03-06T05:40:17.578Z,6.97
2017-03-06T05:41:33.299Z,6.9
2017-03-06T05:42:48.028Z,6.82
2017-03-06T05:44:02.385Z,6.89
2017-03-06T05:45:19.007Z,6.71
2017-03-06T05:46:33.699Z,6.74
2017-03-06T05:47:49.045Z,6.7
2017-03-06T05:49:04.652Z,6.68
2017-03-06T05:50:19.656Z,6.68
2017-03-06T05:51:33.887Z,6.62
2017-03-06T05:52:48.524Z,6.72
2017-03-06T05:54:02.773Z,6.67
2017-03-06T05:55:16.896Z,6.64
2017-03-06T05:56:31.792Z,6.67
2017-03-06T05:57:47.062Z,6.72
2017-03-06T05:59:01.122Z,6.67
2017-03-06T06:00:19.122Z,6.71
2017-03-06T06:01:33.680Z,6.62
2017-03-06T06:02:48.486Z,6.64
2017-03-06T06:04:03.610Z,6.8
2017-03-06T06:05:18.894Z,6.78
2017-03-06T06:06:33.320Z,6.72
2017-03-06T06:07:47.857Z,6.82
2017-03-06T06:09:04.414Z,6.64
2017-03-06T06:10:19.385Z,6.64
2017-03-06T06:11:36.222Z,6.74
2017-03-06T06:12:50.534Z,6.74
2017-03-06T06:14:04.935Z,6.64
2017-03-06T06:15:20.371Z,6.74
2017-03-06T06:16:34.348Z,6.68
2017-03-06T06:17:50.128Z,6.64
2017-03-06T06:19:04.268Z,6.62
2017-03-06T06:20:19.657Z,6.75
2017-03-06T06:21:34.944Z,6.75
2017-03-06T06:22:50.142Z,6.72
2017-03-06T06:24:05.282Z,6.68
2017-03-06T06:25:19.298Z,6.57
2017-03-06T06:26:33.609Z,6.53
2017-03-06T06:27:49.214Z,6.68
2017-03-06T06:29:03.175Z,6.64
2017-03-06T06:30:17.440Z,6.75
2017-03-06T06:31:31.940Z,6.68
2017-03-06T06:32:46.767Z,6.77
2017-03-06T06:34:00.775Z,6.71
2017-03-06T06:35:15.540Z,6.77
2017-03-06T06:36:31.462Z,6.75
2017-03-06T06:38:00.240Z,6.78
2017-03-06T06:39:14.931Z,6.82
2017-03-06T06:40:31.503Z,6.83
2017-03-06T06:41:47.482Z,6.8
2017-03-06T06:43:01.606Z,6.82
2017-03-06T06:44:17.447Z,6.87
2017-03-06T06:45:32.702Z,6.78
2017-03-06T06:46:48.781Z,6.71
2017-03-06T06:48:02.803Z,6.72
2017-03-06T06:49:19.108Z,6.75
2017-03-06T06:50:34.459Z,6.77
2017-03-06T06:51:50.261Z,6.78
2017-03-06T06:53:05.690Z,6.83
2017-03-06T06:54:21.335Z,6.78
2017-03-06T06:55:36.222Z,6.83
2017-03-06T06:56:52.044Z,6.83
2017-03-06T06:58:06.087Z,6.87
2017-03-06T06:59:21.962Z,6.82
2017-03-06T07:00:39.168Z,6.92
2017-03-06T07:01:55.002Z,6.89
2017-03-06T07:03:09.516Z,6.93
2017-03-06T07:04:24.109Z,6.9
2017-03-06T07:05:39.546Z,6.83
2017-03-06T07:06:54.088Z,6.86
2017-03-06T07:08:10.022Z,6.85
2017-03-06T07:09:24.182Z,6.92
2017-03-06T07:10:38.357Z,6.89
2017-03-06T07:11:53.961Z,6.85
2017-03-06T07:13:07.881Z,6.87
2017-03-06T07:14:23.051Z,6.87
2017-03-06T07:15:37.912Z,6.9
2017-03-06T07:16:52.789Z,6.97
2017-03-06T07:18:09.580Z,6.93
2017-03-06T07:19:24.114Z,6.97
2017-03-06T07:20:39.027Z,7.03
2017-03-06T07:21:53.982Z,7
2017-03-06T07:23:08.642Z,7
2017-03-06T07:24:24.095Z,7.14
2017-03-06T07:25:39.442Z,7.1
2017-03-06T07:26:55.010Z,7.1
2017-03-06T07:28:09.198Z,7.01
2017-03-06T07:29:23.446Z,7.07
2017-03-06T07:30:37.528Z,6.97
2017-03-06T07:31:52.305Z,7.13
2017-03-06T07:33:08.310Z,7.14
2017-03-06T07:34:22.490Z,7.11
2017-03-06T07:35:38.216Z,7.07
2017-03-06T07:36:52.189Z,7.19
2017-03-06T07:38:07.113Z,7.29
2017-03-06T07:39:21.622Z,7.23
2017-03-06T07:40:37.412Z,7.26
2017-03-06T07:41:52.955Z,7.28
2017-03-06T07:43:22.988Z,7.26
2017-03-06T07:44:38.560Z,7.08
2017-03-06T07:45:53.968Z,7.11
2017-03-06T07:47:08.888Z,7.05
2017-03-06T07:48:23.624Z,7.26
2017-03-06T07:49:38.297Z,7.28
2017-03-06T07:51:15.032Z,7.23
2017-03-06T07:52:29.722Z,7.19
2017-03-06T07:53:43.767Z,7.28
2017-03-06T07:54:58.563Z,7.31
2017-03-06T07:56:12.687Z,7.29
2017-03-06T07:57:26.899Z,7.26
2017-03-06T07:58:40.862Z,7.36
2017-03-06T07:59:55.072Z,7.26
2017-03-06T08:01:09.588Z,7.25
2017-03-06T08:02:24.082Z,7.41
2017-03-06T08:03:40.006Z,7.41
2017-03-06T08:04:54.683Z,7.44
2017-03-06T08:06:09.543Z,7.44
2017-03-06T08:07:23.886Z,7.46
2017-03-06T08:08:39.808Z,7.36
2017-03-06T08:09:54.190Z,7.44
2017-03-06T08:11:08.319Z,7.31
2017-03-06T08:12:23.040Z,7.36
2017-03-06T08:13:39.857Z,7.33
2017-03-06T08:14:54.569Z,7.39
2017-03-06T08:16:10.127Z,7.39
2017-03-06T08:17:28.714Z,7.36
2017-03-06T08:18:43.195Z,7.44
2017-03-06T08:19:57.445Z,7.47
2017-03-06T08:21:11.736Z,7.62
2017-03-06T08:22:28.322Z,7.62
2017-03-06T08:23:42.930Z,7.67
2017-03-06T08:24:57.285Z,7.64
2017-03-06T08:26:11.571Z,7.81
2017-03-06T08:27:43.720Z,7.9
2017-03-06T08:28:57.855Z,7.8
2017-03-06T08:30:12.656Z,7.77
2017-03-06T08:31:27.311Z,7.83
2017-03-06T08:32:41.749Z,7.61
2017-03-06T08:33:55.907Z,7.59
2017-03-06T08:35:10.144Z,7.59
2017-03-06T08:36:27.031Z,7.62
2017-03-06T08:37:41.067Z,7.58
2017-03-06T08:38:55.488Z,7.59
2017-03-06T08:40:09.898Z,7.62
2017-03-06T08:41:24.518Z,7.61
2017-03-06T08:42:38.546Z,7.64
2017-03-06T08:43:53.224Z,7.67
2017-03-06T08:45:08.118Z,7.69
2017-03-06T08:46:22.339Z,7.59
2017-03-06T08:47:36.654Z,7.61
2017-03-06T08:48:51.318Z,7.59
2017-03-06T08:50:06.223Z,7.67
2017-03-06T08:51:21.329Z,7.66
2017-03-06T08:52:35.857Z,7.69
2017-03-06T08:53:50.844Z,7.59
2017-03-06T08:55:05.359Z,7.69
2017-03-06T08:56:20.042Z,7.72
2017-03-06T08:57:34.957Z,7.58
2017-03-06T08:58:49.876Z,7.77
2017-03-06T09:00:06.677Z,7.64
2017-03-06T09:01:22.347Z,7.66
2017-03-06T09:02:37.230Z,7.66
2017-03-06T09:03:52.266Z,7.66
2017-03-06T09:05:06.983Z,7.64
2017-03-06T09:06:22.028Z,7.67
2017-03-06T09:07:36.924Z,7.62
2017-03-06T09:08:51.825Z,7.75
2017-03-06T09:10:08.889Z,7.58
2017-03-06T09:11:24.204Z,7.7
2017-03-06T09:12:40.672Z,7.67
2017-03-06T09:13:56.389Z,7.75
2017-03-06T09:15:11.866Z,7.7
2017-03-06T09:16:26.807Z,7.75
2017-03-06T09:17:42.348Z,7.83
2017-03-06T09:18:57.584Z,7.95
2017-03-06T09:20:12.119Z,7.95
2017-03-06T09:21:27.806Z,8.05
2017-03-06T09:22:42.500Z,8.13
2017-03-06T09:23:56.925Z,8.26
2017-03-06T09:25:11.806Z,8.35
2017-03-06T09:26:26.372Z,8.18
2017-03-06T09:27:55.454Z,8.21
2017-03-06T09:29:15.193Z,8.32
2017-03-06T09:30:31.969Z,8.5
2017-03-06T09:31:47.318Z,8.71
2017-03-06T09:33:05.087Z,8.84
2017-03-06T09:34:22.429Z,8.87
2017-03-06T09:35:40.871Z,8.95
2017-03-06T09:37:00.129Z,8.99
2017-03-06T09:38:21.164Z,9.08
2017-03-06T09:39:40.725Z,8.92
2017-03-06T09:40:56.958Z,8.89
2017-03-06T09:42:10.906Z,8.77
2017-03-06T09:43:25.300Z,8.81
2017-03-06T09:44:39.389Z,8.79
2017-03-06T09:45:54.046Z,8.78
2017-03-06T09:47:09.852Z,8.78
2017-03-06T09:48:24.269Z,8.77
2017-03-06T09:49:39.075Z,8.82
2017-03-06T09:50:53.951Z,8.86
2017-03-06T09:52:08.984Z,8.86
2017-03-06T09:53:23.038Z,8.96
2017-03-06T09:54:40.829Z,8.99
2017-03-06T09:55:55.876Z,9.05
2017-03-06T09:57:10.861Z,9.03
2017-03-06T09:58:25.438Z,9.05
2017-03-06T09:59:39.442Z,8.92
2017-03-06T10:00:55.012Z,8.89
2017-03-06T10:02:10.887Z,9.05
2017-03-06T10:03:26.863Z,9.08
2017-03-06T10:04:43.610Z,8.92
2017-03-06T10:05:59.701Z,9
2017-03-06T10:07:15.229Z,9.03
2017-03-06T10:08:55.195Z,9.15
2017-03-06T10:10:13.225Z,9.05
2017-03-06T10:11:29.032Z,9
2017-03-06T10:12:44.751Z,9.02
2017-03-06T10:14:00.267Z,9.02
2017-03-06T10:15:14.821Z,8.96
2017-03-06T10:16:30.478Z,9.02
2017-03-06T10:17:45.047Z,8.9
2017-03-06T10:18:59.990Z,8.93
2017-03-06T10:20:15.017Z,8.89
2017-03-06T10:21:29.811Z,8.92
2017-03-06T10:22:43.917Z,8.96
2017-03-06T10:23:58.694Z,8.89
2017-03-06T10:25:12.779Z,8.81
2017-03-06T10:26:27.002Z,8.78
2017-03-06T10:28:27.115Z,8.82
2017-03-06T10:29:43.669Z,8.82
2017-03-06T10:30:59.974Z,8.93
2017-03-06T10:32:27.580Z,9.02
2017-03-06T10:33:53.282Z,9.02
2017-03-06T10:35:09.309Z,9.05
2017-03-06T10:36:24.328Z,9.05
2017-03-06T10:37:39.944Z,9.12
2017-03-06T10:39:26.512Z,9.02
2017-03-06T10:40:53.849Z,9.02
2017-03-06T10:42:08.712Z,9.02
2017-03-06T10:43:24.458Z,8.84
2017-03-06T10:44:40.978Z,8.81
2017-03-06T10:45:56.794Z,8.64
2017-03-06T10:47:11.768Z,8.57
2017-03-06T10:48:27.283Z,8.59
2017-03-06T10:49:42.722Z,8.72
2017-03-06T10:50:58.240Z,8.75
2017-03-06T10:52:13.718Z,8.77
2017-03-06T10:53:30.226Z,8.81
2017-03-06T10:54:45.965Z,8.78
2017-03-06T10:56:00.634Z,8.79
2017-03-06T10:57:16.161Z,8.74
2017-03-06T10:58:31.333Z,8.54
2017-03-06T10:59:46.671Z,8.44
2017-03-06T11:01:40.183Z,8.41
2017-03-06T11:02:55.494Z,8.39
2017-03-06T11:04:10.321Z,8.49
2017-03-06T11:05:25.941Z,8.61
2017-03-06T11:06:40.648Z,8.56
2017-03-06T11:07:56.375Z,8.6
2017-03-06T11:09:11.698Z,8.59
2017-03-06T11:10:26.173Z,8.75
2017-03-06T11:11:41.171Z,8.97
2017-03-06T11:12:56.993Z,9.21
2017-03-06T11:14:12.572Z,9.18
2017-03-06T11:15:30.325Z,9.33
2017-03-06T11:16:45.622Z,9.48
2017-03-06T11:18:00.007Z,9.31
2017-03-06T11:19:14.479Z,9.34
2017-03-06T11:20:30.169Z,9.36
2017-03-06T11:21:45.084Z,9.33
2017-03-06T11:22:59.535Z,9.36
2017-03-06T11:24:13.866Z,9.34
2017-03-06T11:25:28.826Z,9.51
2017-03-06T11:26:44.222Z,9.48
2017-03-06T11:27:58.226Z,9.64
2017-03-06T11:29:27.073Z,9.67
2017-03-06T11:30:41.776Z,9.63
2017-03-06T11:31:57.021Z,9.67
2017-03-06T11:33:11.315Z,9.58
2017-03-06T11:34:26.064Z,9.58
2017-03-06T11:35:40.720Z,9.66
2017-03-06T11:36:58.161Z,9.58
2017-03-06T11:38:12.353Z,9.47
2017-03-06T11:39:26.334Z,9.37
2017-03-06T11:40:41.751Z,9.22
2017-03-06T11:41:56.818Z,9.02
2017-03-06T11:43:36.445Z,8.95
2017-03-06T11:45:37.853Z,9.02
2017-03-06T11:46:53.137Z,8.95
2017-03-06T11:48:08.011Z,8.82
2017-03-06T11:49:22.285Z,8.79
2017-03-06T11:50:36.817Z,8.86
2017-03-06T11:51:52.093Z,8.95
2017-03-06T11:53:07.021Z,8.95
2017-03-06T11:54:21.637Z,9.05
2017-03-06T11:55:36.700Z,8.9
2017-03-06T11:56:56.331Z,9.05
2017-03-06T11:58:11.335Z,9.05
2017-03-06T11:59:25.776Z,8.92
2017-03-06T12:00:40.085Z,8.92
2017-03-06T12:01:54.730Z,8.93
2017-03-06T12:03:09.399Z,8.84
2017-03-06T12:04:23.542Z,8.78
2017-03-06T12:05:38.260Z,8.84
2017-03-06T12:06:52.863Z,8.63
2017-03-06T12:08:07.026Z,8.75
2017-03-06T12:09:21.586Z,8.74
2017-03-06T12:10:36.278Z,8.66
2017-03-06T12:14:21.786Z,8.54
2017-03-06T12:15:36.236Z,8.36
2017-03-06T12:16:52.173Z,8.41
2017-03-06T12:18:07.266Z,8.54
2017-03-06T12:19:21.768Z,8.53
2017-03-06T12:20:54.052Z,8.54
2017-03-06T12:22:08.699Z,8.5
2017-03-06T12:23:23.297Z,8.42
2017-03-06T12:24:37.699Z,8.57
2017-03-06T12:25:52.693Z,8.66
2017-03-06T12:27:09.119Z,8.79
2017-03-06T12:28:24.966Z,8.9
2017-03-06T12:29:42.190Z,8.96
2017-03-06T12:30:58.057Z,8.89
2017-03-06T12:32:13.421Z,8.96
2017-03-06T12:33:38.204Z,9.08
2017-03-06T12:34:52.458Z,9.16
2017-03-06T12:36:09.681Z,9.19
2017-03-06T12:37:25.143Z,9.33
2017-03-06T12:38:39.708Z,9.18
2017-03-06T12:39:55.310Z,9.09
2017-03-06T12:41:09.446Z,9.03
2017-03-06T12:42:24.571Z,8.99
2017-03-06T12:43:39.047Z,9.18
2017-03-06T12:44:55.195Z,9.26
2017-03-06T12:46:55.295Z,9.11
2017-03-06T12:48:09.758Z,9.19
2017-03-06T12:49:23.986Z,9.22
2017-03-06T12:50:38.949Z,9.16
2017-03-06T12:51:54.743Z,9.16
2017-03-06T12:53:10.352Z,9.03
2017-03-06T12:54:25.593Z,9.11
2017-03-06T12:55:40.066Z,9.15
2017-03-06T12:56:55.396Z,9.24
2017-03-06T12:58:10.198Z,9.21
2017-03-06T12:59:25.449Z,9.37
2017-03-06T13:00:41.454Z,9.44
2017-03-06T13:01:57.477Z,9.47
2017-03-06T13:04:03.185Z,9.47
2017-03-06T13:05:20.013Z,9.44
2017-03-06T13:06:36.821Z,9.39
2017-03-06T13:08:28.474Z,9.47
2017-03-06T13:09:43.413Z,9.54
2017-03-06T13:10:58.817Z,9.44
2017-03-06T13:12:14.544Z,9.45
2017-03-06T13:13:29.658Z,9.55
2017-03-06T13:14:43.896Z,9.55
2017-03-06T13:15:58.748Z,9.52
2017-03-06T13:17:13.196Z,9.74
2017-03-06T13:18:28.485Z,9.69
2017-03-06T13:19:44.079Z,9.77
2017-03-06T13:20:58.720Z,9.77
2017-03-06T13:22:13.335Z,9.56
2017-03-06T13:23:27.803Z,9.52
2017-03-06T13:24:42.475Z,9.67
2017-03-06T13:25:56.587Z,9.74
2017-03-06T13:27:11.656Z,9.9
2017-03-06T13:28:26.923Z,9.91
2017-03-06T13:29:41.830Z,10
2017-03-06T13:30:56.906Z,10.06
2017-03-06T13:32:12.448Z,10.09
2017-03-06T13:33:26.678Z,10.09
2017-03-06T13:34:40.725Z,10.15
2017-03-06T13:35:56.099Z,10.12
2017-03-06T13:37:12.817Z,10.17
2017-03-06T13:38:28.094Z,10.03
2017-03-06T13:39:43.261Z,10.03
2017-03-06T13:40:57.614Z,10.21
2017-03-06T13:42:12.006Z,10.23
2017-03-06T13:43:29.339Z,10.21
2017-03-06T13:44:45.543Z,10.1
2017-03-06T13:46:15.135Z,10.2
2017-03-06T13:47:29.872Z,10.24
2017-03-06T13:48:44.313Z,10.33
2017-03-06T13:50:00.444Z,10.53
2017-03-06T13:51:16.284Z,10.55
2017-03-06T13:52:31.209Z,10.69
2017-03-06T13:53:46.582Z,10.77
2017-03-06T13:55:02.255Z,10.77
2017-03-06T13:56:19.270Z,10.71
2017-03-06T13:57:33.553Z,10.53
2017-03-06T13:58:48.985Z,10.51
2017-03-06T14:00:04.203Z,10.58
2017-03-06T14:01:18.431Z,10.59
2017-03-06T14:02:32.917Z,10.67
2017-03-06T14:03:47.311Z,10.55
2017-03-06T14:05:02.528Z,10.67
2017-03-06T14:06:19.033Z,10.65
2017-03-06T14:07:34.814Z,10.77
2017-03-06T14:08:50.793Z,10.82
2017-03-06T14:10:07.461Z,10.8
2017-03-06T14:11:37.619Z,10.69
2017-03-06T14:12:53.898Z,10.82
2017-03-06T14:14:08.520Z,10.9
2017-03-06T14:15:23.810Z,10.97
2017-03-06T14:16:38.309Z,10.95
2017-03-06T14:17:53.145Z,10.86
2017-03-06T14:19:07.752Z,10.77
2017-03-06T14:20:23.410Z,10.77
2017-03-06T14:21:38.420Z,10.92
2017-03-06T14:22:54.029Z,10.98
2017-03-06T14:24:09.658Z,11.18
2017-03-06T14:25:24.442Z,10.98
2017-03-06T14:26:38.964Z,11
2017-03-06T14:27:53.629Z,10.84
2017-03-06T14:29:10.092Z,10.92
2017-03-06T14:30:24.823Z,10.83
2017-03-06T14:31:39.547Z,11
2017-03-06T14:32:53.810Z,11.01
2017-03-06T14:34:08.260Z,10.89
2017-03-06T14:35:22.863Z,10.77
2017-03-06T14:36:37.572Z,10.64
2017-03-06T14:37:51.843Z,10.72
2017-03-06T14:39:06.345Z,10.89
2017-03-06T14:40:21.962Z,10.68
2017-03-06T14:41:37.672Z,10.89
2017-03-06T14:42:53.066Z,10.9
2017-03-06T14:44:09.721Z,10.95
2017-03-06T14:45:25.750Z,10.89
2017-03-06T14:46:40.463Z,10.87
2017-03-06T14:47:55.626Z,10.75
2017-03-06T14:49:10.430Z,10.82
2017-03-06T14:50:26.533Z,10.86
2017-03-06T14:51:41.950Z,10.82
2017-03-06T14:52:57.236Z,10.71
2017-03-06T14:54:11.820Z,10.61
2017-03-06T14:55:38.659Z,10.62
2017-03-06T14:56:53.017Z,10.55
2017-03-06T14:58:07.310Z,10.58
2017-03-06T14:59:22.966Z,10.58
2017-03-06T15:00:38.829Z,10.65
2017-03-06T15:01:54.619Z,10.62
2017-03-06T15:03:09.524Z,10.65
2017-03-06T15:04:24.761Z,10.59
2017-03-06T15:05:57.105Z,10.64
2017-03-06T15:07:13.292Z,10.59
2017-03-06T15:08:28.112Z,10.67
2017-03-06T15:09:43.223Z,10.61
2017-03-06T15:10:59.262Z,10.55
2017-03-06T15:12:14.471Z,10.61
2017-03-06T15:13:30.962Z,10.62
2017-03-06T15:14:47.409Z,10.58
2017-03-06T15:16:02.572Z,10.45
2017-03-06T15:17:17.349Z,10.51
2017-03-06T15:18:34.881Z,10.53
2017-03-06T15:19:49.427Z,10.53
2017-03-06T15:21:03.794Z,10.49
2017-03-06T15:22:18.773Z,10.49
2017-03-06T15:23:35.172Z,10.41
2017-03-06T15:24:51.710Z,10.27
2017-03-06T15:26:08.605Z,10.42
2017-03-06T15:27:23.497Z,10.42
2017-03-06T15:28:40.391Z,10.51
2017-03-06T15:30:18.808Z,10.45
2017-03-06T15:31:35.914Z,10.36
2017-03-06T15:33:06.565Z,10.39
2017-03-06T15:34:28.541Z,10.39
2017-03-06T15:36:30.526Z,10.34
2017-03-06T15:37:54.494Z,10.27
2017-03-06T15:39:19.673Z,10.27
2017-03-06T15:40:42.798Z,10.24
2017-03-06T15:42:07.942Z,10.24
2017-03-06T15:43:43.884Z,10.42
2017-03-06T15:45:10.203Z,10.42
2017-03-06T15:46:33.814Z,10.42
2017-03-06T15:47:57.458Z,10.31
2017-03-06T15:49:14.221Z,10.23
2017-03-06T15:50:29.114Z,10.2
2017-03-06T15:51:43.352Z,10.3
2017-03-06T15:52:59.113Z,10.28
2017-03-06T15:54:14.795Z,10.3
2017-03-06T15:55:30.823Z,10.24
2017-03-06T15:56:47.999Z,10.33
2017-03-06T15:58:03.478Z,10.27
2017-03-06T15:59:18.932Z,10.23
2017-03-06T16:00:47.592Z,10.17
2017-03-06T16:02:02.979Z,10.18
2017-03-06T16:03:17.419Z,10.06
2017-03-06T16:04:32.565Z,10.1
2017-03-06T16:05:48.124Z,10.2
2017-03-06T16:07:03.913Z,10.1
2017-03-06T16:08:18.533Z,10.07
2017-03-06T16:09:35.275Z,9.94
2017-03-06T16:10:50.646Z,9.94
2017-03-06T16:12:07.410Z,9.97
2017-03-06T16:13:22.980Z,10.05
2017-03-06T16:14:38.732Z,10.03
2017-03-06T16:15:54.991Z,10.02
2017-03-06T16:17:12.427Z,9.92
2017-03-06T16:18:27.817Z,9.91
2017-03-06T16:19:43.425Z,9.9
2017-03-06T16:20:58.876Z,9.85
2017-03-06T16:22:13.892Z,9.82
2017-03-06T16:23:30.404Z,9.8
2017-03-06T16:24:46.175Z,9.8
2017-03-06T16:26:00.240Z,9.81
2017-03-06T16:27:16.103Z,9.8
2017-03-06T16:28:30.158Z,9.81
2017-03-06T16:29:46.236Z,9.9
2017-03-06T16:31:20.555Z,10.02
2017-03-06T16:32:36.535Z,9.81
2017-03-06T16:33:51.317Z,9.77
2017-03-06T16:35:06.102Z,9.74
2017-03-06T16:36:33.318Z,9.81
2017-03-06T16:37:48.186Z,9.8
2017-03-06T16:39:03.964Z,9.77
2017-03-06T16:40:18.970Z,9.67
2017-03-06T16:41:33.073Z,9.69
2017-03-06T16:42:47.718Z,9.56
2017-03-06T16:44:02.386Z,9.42
2017-03-06T16:45:17.851Z,9.39
2017-03-06T16:46:31.838Z,9.33
2017-03-06T16:47:47.227Z,9.3
2017-03-06T16:49:01.313Z,9.27
2017-03-06T16:50:29.934Z,9.29
2017-03-06T16:51:44.074Z,9.19
2017-03-06T16:52:59.750Z,9.16
2017-03-06T16:54:14.230Z,9.18
2017-03-06T16:55:28.708Z,9.19
2017-03-06T16:56:44.073Z,9.16
2017-03-06T16:57:59.264Z,9.11
2017-03-06T16:59:13.665Z,9.16